SILO ALERT LOG


Silo ID Alert Type Alert Message Silo Type Points Depth (mm) Strength Temperature (°C) Humidity (%) Height (mm) Volume (㎥) Weight (t) Flag Time
DJSAD11 Humidity 습도센서 측정값이 80% 초과 340 1647 3300 1.4 80.4 5932 844.124 533.655 11 2024-01-13 02:39:35.000
DJSSD04 Temperature 온도센서 상태 이상 0 8200 0 -999 -999 -120 -16.702 0 31 2024-01-13 02:39:33.000
DJSSD09 Temperature 온도센서 측정값이 0도 미만 119 2866 3208 -45.4 0 4813 669.899 423.51 11 2024-01-13 02:39:32.000
DJSSD11 Temperature 온도센서 측정값이 0도 미만 호퍼 440 7406 153 -5 72.8 3823 28.549 15.559 0 2024-01-13 02:39:32.000
DJSSD05 Temperature 온도센서 측정값이 0도 미만 841 2546 4907 -45.4 43.6 5533 770.145 486.886 0 2024-01-13 02:39:32.000
DJSAD08 Humidity 습도센서 측정값이 80% 초과 599 2289 4864 8 83.7 5290 752.767 475.899 0 2024-01-13 02:39:32.000
DJSSD01 Humidity 습도센서 측정값이 80% 초과 791 2563 4644 5.1 83.7 5516 767.758 485.377 0 2024-01-13 02:39:32.000
DJSAD16 Humidity 습도센서 측정값이 80% 초과 89 6525 3417 4.4 80.4 1054 104.97 66.362 11 2024-01-13 02:39:32.000
DJHNR01 Humidity 습도센서 측정값이 80% 초과 호퍼 471 4315 4881 4.9 99.9 11064 472.262 298.564 13 2024-01-13 02:39:32.000
DJSAD18 Humidity 습도센서 측정값이 80% 초과 120 1412 5826 4.7 80.8 6167 614.12 388.247 11 2024-01-13 02:39:31.000
DJHNR11 Temperature 온도센서 측정값이 0도 미만 호퍼 99 4898 233 -3.8 76.2 5481 64.306 40.654 11 2024-01-13 02:39:31.000
DJDJD04 Humidity 습도센서 측정값이 80% 초과 276 4210 4461 3 81.7 3469 420.365 265.755 11 2024-01-13 02:39:31.000
DJHNR14 Temperature 온도센서 측정값이 0도 미만 호퍼 40 3063 4440 -3.5 73.1 7316 103.865 65.664 11 2024-01-13 02:39:30.000
DJSAD17 Humidity 습도센서 측정값이 80% 초과 447 3121 4868 3.8 81 4458 443.925 280.649 0 2024-01-13 02:39:30.000
DJHNR13 Temperature 온도센서 측정값이 0도 미만 호퍼 15 3053 3083 -2.9 68.8 7326 104.077 65.797 11 2024-01-13 02:39:30.000
DJSSD12 Temperature 온도센서 상태 이상 호퍼 0 11350 0 -999 -999 -120 0 0 31 2024-01-13 02:39:24.000
DJHNR12 Temperature 온도센서 측정값이 0도 미만 호퍼 0 10500 0 -1.2 78.5 -120 0 0 31 2024-01-13 02:39:23.000
DJHNR03 Temperature 온도센서 상태 이상 호퍼 0 15500 0 -999 -999 -119 0 0 31 2024-01-13 02:39:23.000
DJSAD01 Humidity 습도센서 측정값이 80% 초과 453 1556 7352 1.4 85.8 7223 299.034 189.049 0 2024-01-13 01:39:40.000
DJSAD02 Humidity 습도센서 측정값이 80% 초과 389 1138 4270 2.1 85.7 7641 316.339 199.99 11 2024-01-13 01:39:39.000

[첫 페이지] [9971] [9972] [9973] [9974] 9975 [9976] [9977] [9978] [9979] [마지막 페이지]